Time;durP1;ratioP1;P1;durP2;ratioP2;P2;SDS_P1;SDS_P2;PMS_P1;PMS_P2;Temp;Humidity;BMP_temperature;BMP_pressure;BME280_temperature;BME280_humidity;BME280_pressure;Samples;Min_cycle;Max_cycle;Signal;HPM_P1;HPM_P2
2022/12/18 00:02:11;;;;;;;7.60;6.67;;;;;;;0.93;100.00;100008.44;1677437;84;21580;-55
2022/12/18 00:04:37;;;;;;;8.40;6.97;;;;;;;0.87;100.00;100006.70;1670481;84;21501;-55
2022/12/18 00:07:03;;;;;;;9.05;6.62;;;;;;;0.81;100.00;100001.92;1675452;84;21908;-55
2022/12/18 00:09:30;;;;;;;8.10;5.78;;;;;;;0.85;100.00;99998.06;1677013;84;21007;-55
2022/12/18 00:11:57;;;;;;;7.12;6.35;;;;;;;0.83;100.00;100001.09;1644990;84;21472;-55
2022/12/18 00:14:23;;;;;;;7.70;6.58;;;;;;;0.85;100.00;100010.13;1647988;85;21532;-55
2022/12/18 00:16:50;;;;;;;8.68;6.12;;;;;;;0.86;100.00;100019.20;1619462;86;21524;-55
2022/12/18 00:19:17;;;;;;;6.92;6.20;;;;;;;0.85;100.00;100022.66;1667068;83;22855;-55
2022/12/18 00:21:43;;;;;;;8.30;7.17;;;;;;;0.78;100.00;100017.88;1679529;83;21594;-55
2022/12/18 00:24:11;;;;;;;8.37;6.80;;;;;;;0.82;100.00;100026.96;1679655;83;21502;-55
2022/12/18 00:26:38;;;;;;;8.33;6.75;;;;;;;0.79;100.00;100022.63;1677503;83;21546;-55
2022/12/18 00:29:09;;;;;;;11.03;7.87;;;;;;;0.70;100.00;100026.06;1669964;83;22255;-55
2022/12/18 00:31:37;;;;;;;10.82;8.03;;;;;;;0.70;100.00;100031.23;1675789;84;22081;-55
2022/12/18 00:34:03;;;;;;;9.80;7.78;;;;;;;0.61;100.00;100036.38;1669485;83;27173;-55
2022/12/18 00:36:33;;;;;;;9.85;7.30;;;;;;;0.60;100.00;100037.22;1666400;85;21499;-55
2022/12/18 00:39:01;;;;;;;10.10;7.40;;;;;;;0.53;100.00;100041.97;1669904;83;21609;-55
2022/12/18 00:44:15;;;;;;;8.00;6.12;;;;;;;0.56;100.00;100044.55;1667920;85;21647;-56
2022/12/18 00:46:43;;;;;;;7.65;6.78;;;;;;;0.56;100.00;100047.13;1673752;83;21009;-55
2022/12/18 00:49:09;;;;;;;9.20;6.80;;;;;;;0.58;100.00;100055.77;1636411;85;21601;-55
2022/12/18 00:51:36;;;;;;;7.67;6.47;;;;;;;0.50;100.00;100049.27;1629288;86;21616;-55
2022/12/18 00:54:03;;;;;;;9.53;6.83;;;;;;;0.36;100.00;100047.91;1636987;86;21656;-55
2022/12/18 00:56:31;;;;;;;;;;;;;;;0.35;100.00;100051.34;1630417;86;22060;-55
2022/12/18 00:58:57;;;;;;;12.85;8.15;;;;;;;0.20;100.00;100048.68;1633762;86;20450;-56
2022/12/18 01:01:24;;;;;;;10.75;8.65;;;;;;;0.08;100.00;100046.89;1631825;85;21475;-55
2022/12/18 01:03:50;;;;;;;8.23;7.33;;;;;;;0.01;100.00;100055.46;1630060;85;21616;-56
2022/12/18 01:06:17;;;;;;;9.45;6.90;;;;;;;0.06;100.00;100053.78;1672334;85;21116;-55
2022/12/18 01:08:44;;;;;;;8.63;6.40;;;;;;;-0.03;100.00;100062.77;1666567;85;21817;-55
2022/12/18 01:11:17;;;;;;;10.23;7.67;;;;;;;-0.21;100.00;100068.65;1670207;83;21020;-55
2022/12/18 01:13:43;;;;;;;8.20;6.83;;;;;;;-0.15;100.00;100071.70;1676784;85;21454;-55
2022/12/18 01:16:12;;;;;;;11.95;8.10;;;;;;;-0.16;100.00;100064.39;1662283;84;21072;-55
2022/12/18 01:18:39;;;;;;;9.35;7.03;;;;;;;-0.19;100.00;100061.77;1666626;85;21506;-55
2022/12/18 01:21:15;;;;;;;8.68;7.20;;;;;;;-0.13;100.00;100081.23;1672543;85;21865;-55
2022/12/18 01:23:42;;;;;;;10.25;7.40;;;;;;;-0.11;100.00;100079.52;1675384;83;21479;-55
2022/12/18 01:26:14;;;;;;;9.53;7.22;;;;;;;-0.08;100.00;100081.24;1634419;85;21534;-55
2022/12/18 01:28:40;;;;;;;7.42;6.47;;;;;;;-0.06;100.00;100084.30;1623649;85;21552;-55
2022/12/18 01:31:19;;;;;;;9.98;8.03;;;;;;;0.02;100.00;100086.05;1618801;86;21597;-55
2022/12/18 01:33:46;;;;;;;8.70;6.65;;;;;;;0.09;100.00;100102.05;1630380;86;22134;-56
2022/12/18 01:36:23;;;;;;;10.95;7.72;;;;;;;0.02;100.00;100098.98;1617529;86;21049;-55
2022/12/18 01:38:50;;;;;;;7.75;5.35;;;;;;;0.06;100.00;100099.43;1613043;86;21578;-56
2022/12/18 01:41:21;;;;;;;11.70;8.25;;;;;;;-0.05;100.00;100102.81;1614351;86;21575;-55
2022/12/18 01:43:59;;;;;;;10.10;7.97;;;;;;;-0.04;100.00;100121.37;1613274;86;21024;-55
2022/12/18 01:46:26;;;;;;;11.75;8.03;;;;;;;-0.06;100.00;100120.49;1614799;86;21623;-55
2022/12/18 01:48:57;;;;;;;10.85;7.60;;;;;;;-0.06;100.00;100116.62;1624258;86;21626;-55
2022/12/18 01:51:24;;;;;;;10.58;7.83;;;;;;;-0.13;100.00;100116.13;1616367;86;21728;-55
2022/12/18 01:53:51;;;;;;;10.47;8.07;;;;;;;-0.28;100.00;100112.13;1597319;86;21501;-56
2022/12/18 01:56:20;;;;;;;12.80;9.43;;;;;;;-0.32;100.00;100108.64;1618496;86;21555;-56
2022/12/18 01:58:52;;;;;;;12.10;8.88;;;;;;;-0.33;100.00;100115.08;1617211;86;22169;-55
2022/12/18 02:01:21;;;;;;;11.65;7.70;;;;;;;-0.35;100.00;100118.08;1615893;86;21657;-56
2022/12/18 02:03:48;;;;;;;11.88;8.85;;;;;;;-0.24;100.00;100126.80;1612002;86;21535;-55
2022/12/18 02:06:31;;;;;;;11.93;8.48;;;;;;;-0.28;100.00;100128.92;1613089;86;21475;-55
2022/12/18 02:09:20;;;;;;;12.55;9.28;;;;;;;-0.27;100.00;100126.32;1610145;86;21464;-56
2022/12/18 02:12:13;;;;;;;13.70;9.70;;;;;;;-0.52;100.00;100123.95;1617242;86;21564;-55
2022/12/18 02:15:01;;;;;;;14.30;9.78;;;;;;;-0.54;100.00;100132.11;1616329;86;22071;-55
2022/12/18 02:17:33;;;;;;;12.37;8.85;;;;;;;-0.74;100.00;100145.23;1616280;86;21561;-56
2022/12/18 06:35:01;;;;;;;9.38;6.45;;;;;;;-4.05;100.00;100535.00;1838607;75;27199;-56
2022/12/18 06:37:28;;;;;;;9.13;6.17;;;;;;;-3.74;100.00;100554.80;1813983;77;21412;-55
2022/12/18 06:39:56;;;;;;;10.03;7.10;;;;;;;-3.56;100.00;100548.02;1821090;77;21580;-57
2022/12/18 06:42:24;;;;;;;8.80;6.47;;;;;;;-3.38;100.00;100552.83;1823901;77;21580;-56
2022/12/18 06:48:10;;;;;;;10.82;8.05;;;;;;;-3.35;100.00;100545.22;1803753;77;26903;-56
2022/12/18 06:50:36;;;;;;;8.55;7.03;;;;;;;-3.13;100.00;100563.38;1794911;79;21385;-57
2022/12/18 06:53:03;;;;;;;11.97;8.53;;;;;;;-3.02;100.00;100563.25;1782047;79;21915;-57
2022/12/18 06:55:30;;;;;;;8.53;6.90;;;;;;;-2.96;100.00;100557.00;1779425;79;21558;-56
2022/12/18 06:57:58;;;;;;;9.28;6.53;;;;;;;-2.82;100.00;100558.64;1785145;79;21454;-56
2022/12/18 07:00:24;;;;;;;11.28;7.67;;;;;;;-2.72;100.00;100569.18;1780101;79;21615;-56
2022/12/18 07:02:51;;;;;;;9.75;6.65;;;;;;;-2.74;100.00;100554.97;1771315;79;21188;-56
2022/12/18 07:05:18;;;;;;;7.58;6.40;;;;;;;-2.66;100.00;100549.59;1783222;79;21741;-56
2022/12/18 07:07:44;;;;;;;10.32;7.17;;;;;;;-2.60;100.00;100561.75;1782897;79;21692;-56
2022/12/18 07:10:11;;;;;;;7.07;6.23;;;;;;;-2.57;100.00;100562.70;1743608;80;20986;-57
2022/12/18 07:12:38;;;;;;;6.35;5.60;;;;;;;-2.49;100.00;100563.31;1777890;79;20993;-56
2022/12/18 07:15:06;;;;;;;7.70;6.10;;;;;;;-2.41;100.00;100569.13;1779174;79;21560;-58
2022/12/18 07:17:34;;;;;;;7.78;5.95;;;;;;;-2.35;100.00;100569.27;1773201;79;21766;-57
2022/12/18 07:20:01;;;;;;;6.93;6.03;;;;;;;-2.31;100.00;100574.50;1772864;79;20984;-56
2022/12/18 07:22:28;;;;;;;9.30;6.17;;;;;;;-2.30;100.00;100565.92;1773249;79;21529;-55
2022/12/18 07:24:55;;;;;;;9.95;6.65;;;;;;;-2.33;100.00;100573.59;1788160;79;21447;-55
2022/12/18 07:27:22;;;;;;;6.93;5.57;;;;;;;-2.38;100.00;100587.20;1744154;81;21424;-55
2022/12/18 07:29:49;;;;;;;7.30;5.87;;;;;;;-2.40;100.00;100576.00;1777792;78;21542;-55
2022/12/18 07:32:16;;;;;;;6.90;5.73;;;;;;;-2.39;100.00;100570.45;1769135;79;21532;-55
2022/12/18 07:34:42;;;;;;;8.65;6.20;;;;;;;-2.40;100.00;100594.45;1782446;79;21490;-54
2022/12/18 07:37:09;;;;;;;7.28;5.55;;;;;;;-2.61;100.00;100585.77;1771549;79;21476;-55
2022/12/18 07:39:36;;;;;;;8.00;5.90;;;;;;;-2.59;100.00;100584.11;1770109;79;21617;-55
2022/12/18 07:44:48;;;;;;;6.50;5.05;;;;;;;-2.66;100.00;100599.80;1780707;79;21469;-56
2022/12/18 07:47:15;;;;;;;7.60;5.92;;;;;;;-2.58;100.00;100603.86;1779992;79;21076;-56
2022/12/18 07:49:42;;;;;;;7.20;5.57;;;;;;;-2.58;100.00;100608.62;1771547;79;21480;-54
2022/12/18 07:52:09;;;;;;;9.03;6.53;;;;;;;-2.54;100.00;100609.57;1771993;79;21630;-54
2022/12/18 07:54:36;;;;;;;8.97;7.03;;;;;;;-2.57;100.00;100617.20;1785452;79;22108;-54
2022/12/18 07:57:02;;;;;;;6.70;5.00;;;;;;;-2.52;100.00;100616.91;1778335;79;21541;-54
2022/12/18 07:59:29;;;;;;;6.95;5.37;;;;;;;-2.52;100.00;100623.75;1782646;79;20979;-54
2022/12/18 08:01:56;;;;;;;7.15;5.62;;;;;;;-2.53;100.00;100632.33;1784970;79;21484;-54
2022/12/18 08:04:22;;;;;;;7.40;5.65;;;;;;;-2.55;100.00;100631.85;1780907;79;21571;-54
2022/12/18 08:06:49;;;;;;;7.62;5.53;;;;;;;-2.71;100.00;100642.98;1776546;79;21703;-55
2022/12/18 08:09:15;;;;;;;8.18;5.50;;;;;;;-2.65;100.00;100638.03;1787484;79;21631;-54
2022/12/18 08:11:42;;;;;;;6.80;5.62;;;;;;;-2.58;100.00;100652.39;1772419;79;21530;-54
2022/12/18 08:14:09;;;;;;;6.53;5.10;;;;;;;-2.56;100.00;100654.59;1739584;80;22625;-54
2022/12/18 08:16:36;;;;;;;6.67;5.53;;;;;;;-2.60;100.00;100649.30;1729659;81;21520;-54
2022/12/18 08:19:03;;;;;;;5.20;4.37;;;;;;;-2.63;100.00;100638.52;1739033;80;21819;-55
2022/12/18 08:21:30;;;;;;;6.22;5.10;;;;;;;-2.73;100.00;100636.54;1771856;79;21559;-55
2022/12/18 08:23:59;;;;;;;6.40;5.47;;;;;;;-2.70;100.00;100651.19;1776316;79;21478;-55
2022/12/18 08:26:28;;;;;;;6.37;5.70;;;;;;;-2.70;100.00;100669.20;1781709;79;21586;-55
2022/12/18 08:28:55;;;;;;;5.62;4.72;;;;;;;-2.80;100.00;100659.94;1773546;78;21514;-55
2022/12/18 08:31:22;;;;;;;5.25;4.37;;;;;;;-2.67;100.00;100649.99;1781113;79;21803;-55
2022/12/18 08:33:50;;;;;;;5.87;5.07;;;;;;;-2.81;100.00;100665.91;1781160;79;21546;-55
2022/12/18 08:36:18;;;;;;;5.58;4.10;;;;;;;-2.78;100.00;100671.58;1775700;79;21485;-55
2022/12/18 08:38:46;;;;;;;4.75;4.22;;;;;;;-2.56;100.00;100669.17;1767335;79;21589;-55
2022/12/18 08:41:14;;;;;;;8.30;5.28;;;;;;;-2.43;100.00;100675.11;1784866;79;21210;-55
2022/12/18 08:46:27;;;;;;;6.72;5.08;;;;;;;-2.32;100.00;100677.08;1777820;79;21546;-56
2022/12/18 08:48:55;;;;;;;5.15;4.35;;;;;;;-2.35;100.00;100665.86;1788084;79;21447;-55
2022/12/18 08:51:22;;;;;;;6.60;5.03;;;;;;;-2.33;100.00;100666.34;1767614;79;21462;-56
2022/12/18 08:53:51;;;;;;;7.92;5.30;;;;;;;-2.31;100.00;100680.13;1768215;79;21519;-56
2022/12/18 08:56:19;;;;;;;7.33;5.42;;;;;;;-2.25;100.00;100688.00;1772044;79;21853;-56
2022/12/18 08:58:46;;;;;;;7.17;5.57;;;;;;;-2.18;100.00;100689.91;1778264;79;21474;-56
2022/12/18 09:01:14;;;;;;;7.53;5.62;;;;;;;-2.15;100.00;100696.41;1770839;79;21596;-58
2022/12/18 09:03:40;;;;;;;7.85;5.42;;;;;;;-2.12;100.00;100701.66;1773008;79;21608;-56
2022/12/18 09:06:07;;;;;;;7.33;5.72;;;;;;;-2.08;100.00;100696.16;1786321;79;21571;-58
2022/12/18 09:08:36;;;;;;;8.00;6.17;;;;;;;-2.12;100.00;100705.52;1780290;79;21458;-58
2022/12/18 09:11:03;;;;;;;7.92;5.87;;;;;;;-2.23;100.00;100704.38;1775431;79;20938;-58
2022/12/18 09:13:30;;;;;;;8.40;5.90;;;;;;;-2.22;100.00;100709.99;1773518;79;21507;-58
2022/12/18 09:15:57;;;;;;;7.47;5.50;;;;;;;-2.39;100.00;100698.82;1764325;79;21025;-59
2022/12/18 09:18:24;;;;;;;6.72;5.42;;;;;;;-2.40;100.00;100703.92;1777939;79;21657;-58
2022/12/18 09:20:52;;;;;;;8.00;5.70;;;;;;;-2.39;100.00;100709.55;1772226;79;21518;-58
2022/12/18 09:23:19;;;;;;;8.93;5.90;;;;;;;-2.38;100.00;100704.41;1779868;79;21498;-60
2022/12/18 09:25:46;;;;;;;8.25;6.37;;;;;;;-2.43;100.00;100714.13;1776982;79;21526;-59
2022/12/18 09:28:18;;;;;;;5.77;4.93;;;;;;;-2.46;100.00;100718.80;1777859;79;21590;-61
2022/12/18 09:30:46;;;;;;;7.30;6.12;;;;;;;-2.35;100.00;100709.66;1783076;79;21494;-59
2022/12/18 09:33:13;;;;;;;7.42;5.72;;;;;;;-2.44;100.00;100705.97;1769766;79;21795;-60
2022/12/18 09:35:41;;;;;;;10.23;5.87;;;;;;;-2.47;100.00;100713.17;1765340;79;21565;-59
2022/12/18 09:38:11;;;;;;;8.55;5.97;;;;;;;-2.54;100.00;100722.88;1772619;79;21539;-59
2022/12/18 09:40:52;;;;;;;6.42;5.30;;;;;;;-2.60;100.00;100718.83;1773255;79;21544;-58
2022/12/18 09:43:24;;;;;;;7.00;5.30;;;;;;;-2.67;100.00;100725.52;1762237;79;21688;-58
2022/12/18 09:46:01;;;;;;;8.58;5.90;;;;;;;-2.76;100.00;100719.69;1773881;79;21892;-56
2022/12/18 09:48:39;;;;;;;7.45;5.33;;;;;;;-2.75;100.00;100739.47;1777584;79;21494;-57
2022/12/18 09:51:17;;;;;;;5.62;4.85;;;;;;;-2.74;100.00;100736.05;1773850;79;21428;-56
2022/12/18 09:54:22;;;;;;;7.70;5.83;;;;;;;-2.69;100.00;100741.73;1773173;79;21486;-56
2022/12/18 09:56:49;;;;;;;6.80;5.70;;;;;;;-2.73;100.00;100735.66;1774127;79;21549;-56
2022/12/18 09:59:35;;;;;;;8.50;5.87;;;;;;;-2.76;100.00;100746.72;1776070;79;22158;-56
2022/12/18 10:02:21;;;;;;;6.17;5.17;;;;;;;-2.75;100.00;100743.33;1782234;79;21429;-55
2022/12/18 14:14:07;;;;;;;6.10;4.72;;;;;;;-4.67;100.00;101176.00;1764230;79;23155;-54
2022/12/18 14:16:33;;;;;;;5.20;4.30;;;;;;;-4.30;100.00;101190.39;1741900;81;21013;-55
2022/12/18 14:19:00;;;;;;;4.73;4.30;;;;;;;-4.09;100.00;101209.67;1695975;81;21909;-55
2022/12/18 14:21:32;;;;;;;5.20;4.40;;;;;;;-3.92;100.00;101196.23;1743739;81;21716;-58
2022/12/18 14:24:19;;;;;;;5.95;4.40;;;;;;;-3.79;100.00;101201.05;1745841;81;21494;-57
2022/12/18 14:26:48;;;;;;;6.83;4.58;;;;;;;-3.69;100.00;101189.47;1745423;81;21446;-56
2022/12/18 14:29:29;;;;;;;5.92;4.67;;;;;;;-3.61;100.00;101185.50;1746384;81;21576;-57
2022/12/18 14:32:15;;;;;;;6.22;4.87;;;;;;;-3.58;100.00;101179.59;1746047;81;21426;-58
2022/12/18 14:34:41;;;;;;;5.05;4.15;;;;;;;-3.48;100.00;101180.81;1745667;81;21000;-59
2022/12/18 14:37:12;;;;;;;4.95;3.92;;;;;;;-3.46;100.00;101180.08;1746070;81;21961;-56
2022/12/18 14:39:39;;;;;;;5.40;4.40;;;;;;;-3.37;100.00;101179.53;1708759;81;21552;-57
2022/12/18 14:42:11;;;;;;;6.20;3.85;;;;;;;-3.33;100.00;101180.14;1745958;81;21608;-57
2022/12/18 14:44:37;;;;;;;5.95;4.72;;;;;;;-3.34;100.00;101177.96;1744273;81;21846;-57
2022/12/18 14:47:05;;;;;;;5.00;4.12;;;;;;;-3.29;100.00;101192.30;1746259;81;21494;-57
2022/12/18 14:49:33;;;;;;;4.53;3.45;;;;;;;-3.22;100.00;101192.11;1743653;81;21521;-58
2022/12/18 14:52:05;;;;;;;6.55;4.67;;;;;;;-3.20;100.00;101195.22;1746196;81;21643;-57
2022/12/18 14:54:32;;;;;;;4.45;4.05;;;;;;;-3.15;100.00;101189.81;1745763;81;21418;-57
2022/12/18 14:57:26;;;;;;;8.05;4.87;;;;;;;-3.15;100.00;101178.23;1735669;81;21926;-57
2022/12/18 14:59:53;;;;;;;5.30;4.35;;;;;;;-3.16;100.00;101182.07;1744635;81;21513;-56
2022/12/18 15:02:27;;;;;;;4.80;4.05;;;;;;;-3.21;100.00;101193.45;1743777;81;21485;-56
2022/12/18 15:05:04;;;;;;;5.08;3.70;;;;;;;-3.24;100.00;101191.17;1745909;81;21614;-56
2022/12/18 15:07:41;;;;;;;;;;;;;;;-3.23;100.00;101186.52;1747675;81;21544;-57
2022/12/18 15:10:16;;;;;;;4.60;3.77;;;;;;;-3.32;100.00;101184.45;1736941;81;22018;-56
2022/12/18 15:13:00;;;;;;;3.77;3.42;;;;;;;-3.27;100.00;101189.37;1734551;81;21415;-57
2022/12/18 15:15:44;;;;;;;4.70;3.80;;;;;;;-3.34;100.00;101183.52;1729416;82;21652;-57
2022/12/18 15:18:16;;;;;;;5.30;4.15;;;;;;;-3.41;100.00;101190.14;1731956;82;21509;-60
2022/12/18 15:20:50;;;;;;;4.55;3.90;;;;;;;-3.39;100.00;101196.61;1728441;82;21608;-57
2022/12/18 15:23:30;;;;;;;5.28;3.87;;;;;;;-3.44;100.00;101195.16;1732823;82;21858;-59
2022/12/18 15:26:01;;;;;;;3.80;3.37;;;;;;;-3.45;100.00;101194.67;1727666;82;21538;-59
2022/12/18 15:28:58;;;;;;;3.98;3.10;;;;;;;-3.44;100.00;101199.44;1731618;82;21608;-58
2022/12/18 15:31:34;;;;;;;5.67;3.62;;;;;;;-3.52;100.00;101205.15;1728671;82;21600;-59
2022/12/18 15:34:20;;;;;;;4.65;3.50;;;;;;;-3.58;100.00;101212.63;1729960;82;21601;-59
2022/12/18 15:36:47;;;;;;;3.95;3.27;;;;;;;-3.65;100.00;101213.61;1730020;82;21812;-59
2022/12/18 15:39:13;;;;;;;3.83;3.37;;;;;;;-3.61;100.00;101220.63;1732106;82;21616;-58
2022/12/18 15:43:33;;;;;;;4.87;3.67;;;;;;;-3.70;100.00;101210.84;1726623;82;21668;-57
2022/12/18 15:44:23;;;;;;;4.85;4.08;;;;;;;-3.67;100.00;101226.78;1727931;82;21549;-57
2022/12/18 15:46:50;;;;;;;3.92;3.15;;;;;;;-3.66;100.00;101234.56;1728911;82;21597;-58
2022/12/18 15:49:16;;;;;;;3.50;3.20;;;;;;;-3.68;100.00;101230.19;1730446;82;21897;-58
2022/12/18 15:51:43;;;;;;;4.80;3.95;;;;;;;-3.73;100.00;101241.17;1731894;82;21438;-57
2022/12/18 15:54:13;;;;;;;5.08;3.87;;;;;;;-3.70;100.00;101251.11;1730507;82;21001;-57
2022/12/18 15:59:25;;;;;;;4.12;3.22;;;;;;;-3.70;100.00;101252.39;1730988;82;21482;-57
2022/12/18 16:01:55;;;;;;;4.53;3.40;;;;;;;-3.74;100.00;101261.25;1719771;82;21845;-57
2022/12/18 16:04:23;;;;;;;5.25;3.85;;;;;;;-3.71;100.00;101272.09;1724464;82;21501;-57
2022/12/18 16:06:51;;;;;;;5.50;4.22;;;;;;;-3.68;100.00;101279.91;1723395;82;21673;-57
2022/12/18 16:09:18;;;;;;;5.12;3.52;;;;;;;-3.67;100.00;101279.11;1732302;82;21108;-58
2022/12/18 16:11:47;;;;;;;6.78;4.08;;;;;;;-3.62;100.00;101287.86;1732357;82;21460;-58
2022/12/18 16:14:26;;;;;;;6.37;3.92;;;;;;;-3.72;100.00;101282.75;1738864;82;21903;-57
2022/12/18 16:16:55;;;;;;;5.10;3.47;;;;;;;-3.71;100.00;101291.37;1735330;82;21537;-56
2022/12/18 16:19:22;;;;;;;5.62;3.75;;;;;;;-3.76;100.00;101291.16;1738680;82;21510;-57
2022/12/18 22:18:29;;;;;;;4.92;3.65;;;;;;;-7.31;100.00;101848.78;1792432;78;23148;-56
2022/12/18 22:21:05;;;;;;;6.05;3.98;;;;;;;-6.94;100.00;101870.30;1762525;80;21553;-57
2022/12/18 22:23:32;;;;;;;5.25;3.87;;;;;;;-6.74;100.00;101858.77;1763307;80;21912;-56
2022/12/18 22:26:01;;;;;;;4.50;3.72;;;;;;;-6.68;100.00;101855.30;1762293;80;21458;-56
2022/12/18 22:31:13;;;;;;;6.37;4.30;;;;;;;-6.55;100.00;101837.77;1723962;80;21424;-55
2022/12/18 22:33:40;;;;;;;6.03;4.20;;;;;;;-6.51;100.00;101834.59;1713764;82;21486;-55
2022/12/18 22:36:07;;;;;;;6.58;4.00;;;;;;;-6.46;100.00;101819.50;1739794;81;21922;-58
2022/12/18 22:38:33;;;;;;;6.12;4.53;;;;;;;-6.46;100.00;101814.38;1729446;81;28791;-56
2022/12/18 22:41:00;;;;;;;5.50;4.37;;;;;;;-6.42;100.00;101811.24;1728904;81;21597;-56
2022/12/18 22:43:26;;;;;;;5.75;4.72;;;;;;;-6.34;100.00;101814.27;1728309;81;21139;-55
2022/12/18 22:45:53;;;;;;;6.35;4.87;;;;;;;-6.33;100.00;101813.45;1738813;81;21430;-56
2022/12/18 22:48:20;;;;;;;;;;;;;;;-6.31;100.00;101815.70;1723746;81;21793;-56
2022/12/18 22:50:47;;;;;;;6.75;4.35;;;;;;;-6.39;100.00;101813.09;1736068;81;21229;-57
2022/12/18 22:53:14;;;;;;;7.03;4.33;;;;;;;-6.38;100.00;101815.75;1722590;81;21459;-57
2022/12/18 22:55:40;;;;;;;5.72;4.30;;;;;;;-6.35;100.00;101812.48;1733499;80;21502;-59
2022/12/18 22:58:07;;;;;;;4.87;3.65;;;;;;;-6.35;100.00;101813.76;1728161;81;21577;-57
2022/12/18 23:00:34;;;;;;;7.00;4.30;;;;;;;-6.39;100.00;101809.25;1740272;81;21491;-57
2022/12/18 23:03:01;;;;;;;5.90;3.95;;;;;;;-6.42;100.00;101810.34;1738482;81;21534;-57
2022/12/18 23:05:29;;;;;;;5.03;4.22;;;;;;;-6.46;100.00;101808.89;1731825;81;21486;-58
2022/12/18 23:07:56;;;;;;;6.80;4.10;;;;;;;-6.51;100.00;101814.52;1731421;81;21513;-58
2022/12/18 23:10:23;;;;;;;6.97;4.28;;;;;;;-6.55;100.00;101813.85;1734566;81;21533;-57
2022/12/18 23:12:50;;;;;;;4.78;3.58;;;;;;;-6.58;100.00;101820.05;1727909;81;21753;-57
2022/12/18 23:15:16;;;;;;;6.15;4.05;;;;;;;-6.63;100.00;101819.75;1711684;82;21505;-57
